Aviation Digital Data Service (ADDS)

Output produced by METARs form (0728 UTC 20 November 2017)
found at http://aviationweather.gov/adds/metars/
 
KSGR 200520Z 2006/2106 05003KT P6SM BKN250 
     FM201700 14007KT P6SM SCT250 
     FM210100 15003KT P6SM SCT250